createdAt,value
2018-05-25T00:01:01.837Z,74.20
2018-05-25T00:03:29.235Z,74.45
2018-05-25T00:05:56.640Z,74.43
2018-05-25T00:08:24.038Z,75.84
2018-05-25T00:10:51.448Z,74.80
2018-05-25T00:13:18.855Z,73.89
2018-05-25T00:15:46.269Z,75.00
2018-05-25T00:18:13.670Z,74.22
2018-05-25T00:20:41.070Z,73.27
2018-05-25T00:23:08.465Z,73.34
2018-05-25T00:25:35.868Z,74.04
2018-05-25T00:28:03.265Z,75.21
2018-05-25T00:30:30.673Z,75.18
2018-05-25T00:32:58.533Z,74.78
2018-05-25T00:35:26.605Z,74.98
2018-05-25T00:37:54.016Z,74.55
2018-05-25T00:40:21.414Z,73.93
2018-05-25T00:42:48.836Z,74.32
2018-05-25T00:45:16.230Z,74.92
2018-05-25T00:47:43.640Z,74.08
2018-05-25T00:50:11.037Z,73.70
2018-05-25T00:52:38.455Z,74.79
2018-05-25T00:55:17.691Z,74.57
2018-05-25T00:57:45.107Z,74.28
2018-05-25T01:00:12.505Z,73.92
2018-05-25T01:02:39.929Z,74.28
2018-05-25T01:05:07.323Z,73.80
2018-05-25T01:07:34.797Z,73.27
2018-05-25T01:10:02.209Z,73.45
2018-05-25T01:12:29.647Z,73.12
2018-05-25T01:15:01.487Z,74.08
2018-05-25T01:17:28.877Z,73.84
2018-05-25T01:19:56.665Z,74.05
2018-05-25T01:22:24.068Z,73.95
2018-05-25T01:24:51.452Z,74.95
2018-05-25T01:27:18.855Z,76.54
2018-05-25T01:29:46.237Z,76.68
2018-05-25T01:32:13.651Z,76.06
2018-05-25T01:34:41.029Z,77.46
2018-05-25T01:37:08.432Z,77.67
2018-05-25T01:39:35.819Z,78.28
2018-05-25T01:42:03.221Z,76.92
2018-05-25T01:44:30.603Z,77.94
2018-05-25T01:46:57.997Z,78.35
2018-05-25T01:49:25.414Z,77.39
2018-05-25T01:51:52.782Z,77.43
2018-05-25T01:54:20.178Z,78.57
2018-05-25T01:56:47.559Z,77.81
2018-05-25T01:59:14.951Z,77.83
2018-05-25T02:01:42.351Z,78.34
2018-05-25T02:04:09.746Z,78.08
2018-05-25T02:06:37.143Z,78.40
2018-05-25T02:09:07.226Z,78.19
2018-05-25T02:11:34.601Z,78.41
2018-05-25T02:14:02.009Z,78.08
2018-05-25T02:16:29.381Z,77.94
2018-05-25T02:18:56.974Z,78.23
2018-05-25T02:21:24.354Z,78.37
2018-05-25T02:23:51.759Z,77.39
2018-05-25T02:26:19.139Z,77.55
2018-05-25T02:28:46.536Z,77.64
2018-05-25T02:31:13.923Z,77.76
2018-05-25T02:33:41.316Z,77.98
2018-05-25T02:36:08.697Z,78.03
2018-05-25T02:38:36.106Z,78.13
2018-05-25T02:41:03.478Z,78.55
2018-05-25T02:43:30.884Z,78.25
2018-05-25T02:45:58.271Z,78.60
2018-05-25T02:48:25.665Z,79.15
2018-05-25T02:50:53.048Z,78.92
2018-05-25T02:53:20.451Z,79.65
2018-05-25T02:55:47.843Z,78.85
2018-05-25T02:58:15.259Z,78.80
2018-05-25T03:00:42.647Z,79.52
2018-05-25T03:03:10.050Z,79.15
2018-05-25T03:05:37.446Z,78.18
2018-05-25T03:08:04.853Z,78.87
2018-05-25T03:10:32.339Z,78.21
2018-05-25T03:12:59.728Z,78.75
2018-05-25T03:15:27.115Z,78.35
2018-05-25T03:17:54.511Z,78.54
2018-05-25T03:20:21.904Z,79.15
2018-05-25T03:22:49.310Z,79.53
2018-05-25T03:25:16.691Z,79.68
2018-05-25T03:27:44.127Z,79.93
2018-05-25T03:30:11.504Z,79.04
2018-05-25T03:32:38.902Z,79.73
2018-05-25T03:35:06.660Z,79.40
2018-05-25T03:37:34.050Z,80.44
2018-05-25T03:40:01.449Z,80.18
2018-05-25T03:42:28.851Z,80.74
2018-05-25T03:44:56.245Z,81.37
2018-05-25T03:47:23.639Z,80.83
2018-05-25T03:49:51.035Z,81.34
2018-05-25T03:52:18.423Z,81.39
2018-05-25T03:54:45.972Z,80.84
2018-05-25T03:57:13.384Z,80.99
2018-05-25T03:59:52.516Z,80.77
2018-05-25T04:02:19.900Z,81.08
2018-05-25T04:04:47.292Z,81.02
2018-05-25T04:07:14.677Z,81.58
2018-05-25T04:09:42.079Z,80.51
2018-05-25T04:12:09.463Z,80.91
2018-05-25T04:14:36.858Z,81.09
2018-05-25T04:17:04.354Z,81.08
2018-05-25T04:19:31.733Z,81.00
2018-05-25T04:21:59.118Z,80.86
2018-05-25T04:24:27.574Z,81.51
2018-05-25T04:26:54.972Z,81.39
2018-05-25T04:29:22.365Z,81.42
2018-05-25T04:31:49.749Z,82.62
2018-05-25T04:34:17.142Z,82.30
2018-05-25T04:36:44.532Z,81.02
2018-05-25T04:39:11.919Z,81.05
2018-05-25T04:41:39.311Z,81.63
2018-05-25T04:44:06.706Z,81.27
2018-05-25T04:46:34.099Z,81.24
2018-05-25T04:49:01.513Z,82.54
2018-05-25T04:51:28.894Z,81.76
2018-05-25T04:53:56.290Z,82.51
2018-05-25T04:56:23.678Z,80.85
2018-05-25T04:58:51.078Z,80.50
2018-05-25T05:01:18.462Z,81.77
2018-05-25T05:03:45.854Z,80.92
2018-05-25T05:06:13.239Z,80.87
2018-05-25T05:08:40.644Z,80.95
2018-05-25T05:11:08.036Z,81.76
2018-05-25T05:13:35.429Z,80.81
2018-05-25T05:16:02.815Z,80.17
2018-05-25T05:18:30.215Z,80.76
2018-05-25T05:20:58.155Z,80.44
2018-05-25T05:23:25.548Z,80.18
2018-05-25T05:25:52.945Z,80.02
2018-05-25T05:28:20.343Z,79.94
2018-05-25T05:30:47.738Z,79.63
2018-05-25T05:33:15.141Z,79.90
2018-05-25T05:35:42.522Z,81.18
2018-05-25T05:38:09.914Z,79.75
2018-05-25T05:40:37.318Z,79.50
2018-05-25T05:43:04.703Z,79.17
2018-05-25T05:45:32.096Z,78.80
2018-05-25T05:47:59.480Z,79.43
2018-05-25T05:50:28.539Z,79.39
2018-05-25T05:52:55.918Z,78.80
2018-05-25T05:55:23.317Z,78.62
2018-05-25T05:57:50.698Z,78.52
2018-05-25T06:00:18.095Z,78.87
2018-05-25T06:02:45.483Z,77.44
2018-05-25T06:05:12.886Z,78.06
2018-05-25T06:07:40.271Z,78.43
2018-05-25T06:10:07.668Z,77.63
2018-05-25T06:12:35.068Z,78.25
2018-05-25T06:15:02.462Z,77.68
2018-05-25T06:17:29.854Z,78.15
2018-05-25T06:19:58.223Z,77.41
2018-05-25T06:22:25.607Z,78.80
2018-05-25T06:24:53.006Z,77.16
2018-05-25T06:27:20.399Z,77.44
2018-05-25T06:29:47.788Z,77.20
2018-05-25T06:32:15.178Z,77.09
2018-05-25T06:34:42.644Z,77.09
2018-05-25T06:37:09.990Z,76.99
2018-05-25T06:39:37.387Z,76.96
2018-05-25T06:42:04.784Z,76.40
2018-05-25T06:44:32.179Z,76.34
2018-05-25T06:46:59.575Z,75.66
2018-05-25T06:49:26.972Z,75.66
2018-05-25T06:51:54.362Z,76.71
2018-05-25T06:54:21.755Z,76.87
2018-05-25T06:56:49.143Z,76.52
2018-05-25T06:59:16.538Z,75.94
2018-05-25T07:01:43.926Z,75.78
2018-05-25T07:04:11.328Z,75.55
2018-05-25T07:06:38.725Z,75.77
2018-05-25T07:09:06.115Z,75.68
2018-05-25T07:11:33.507Z,75.11
2018-05-25T07:14:00.915Z,74.11
2018-05-25T07:16:28.331Z,74.78
2018-05-25T07:18:55.744Z,75.00
2018-05-25T07:21:23.130Z,74.42
2018-05-25T07:23:50.530Z,74.92
2018-05-25T07:26:18.223Z,74.35
2018-05-25T07:28:45.635Z,74.33
2018-05-25T07:31:13.034Z,73.69
2018-05-25T07:33:40.432Z,73.54
2018-05-25T07:36:07.830Z,73.21
2018-05-25T07:38:35.216Z,73.07
2018-05-25T07:41:02.846Z,74.05
2018-05-25T07:43:30.491Z,74.34
2018-05-25T07:46:00.040Z,73.30
2018-05-25T07:48:27.430Z,72.81
2018-05-25T07:50:54.826Z,72.56
2018-05-25T07:53:22.219Z,72.15
2018-05-25T07:55:49.624Z,72.13
2018-05-25T07:58:17.018Z,71.37
2018-05-25T08:00:44.422Z,72.05
2018-05-25T08:03:11.814Z,72.29
2018-05-25T08:05:39.209Z,73.00
2018-05-25T08:08:06.603Z,71.57
2018-05-25T08:10:33.998Z,70.87
2018-05-25T08:13:01.422Z,71.45
2018-05-25T08:15:28.825Z,71.63
2018-05-25T08:17:56.215Z,70.97
2018-05-25T08:20:23.620Z,71.02
2018-05-25T08:22:50.998Z,70.26
2018-05-25T08:25:18.398Z,70.07
2018-05-25T08:27:45.794Z,70.03
2018-05-25T08:30:13.192Z,68.67
2018-05-25T08:32:40.576Z,68.22
2018-05-25T08:35:07.975Z,68.83
2018-05-25T08:37:35.367Z,68.19
2018-05-25T08:40:02.793Z,67.90
2018-05-25T08:42:30.178Z,68.13
2018-05-25T08:44:57.591Z,67.68
2018-05-25T08:47:24.980Z,69.56
2018-05-25T08:49:52.376Z,68.53
2018-05-25T08:52:19.766Z,68.26
2018-05-25T08:54:47.168Z,67.86
2018-05-25T08:57:14.554Z,67.50
2018-05-25T08:59:41.944Z,67.70
2018-05-25T09:02:09.335Z,67.21
2018-05-25T09:04:36.731Z,67.05
2018-05-25T09:07:04.119Z,67.12
2018-05-25T09:09:31.512Z,67.65
2018-05-25T09:11:58.936Z,67.63
2018-05-25T09:14:26.333Z,66.59
2018-05-25T09:16:53.726Z,66.56
2018-05-25T09:19:21.123Z,66.89
2018-05-25T09:21:48.541Z,66.64
2018-05-25T09:24:15.899Z,65.61
2018-05-25T09:26:43.295Z,64.41
2018-05-25T09:29:10.679Z,64.88
2018-05-25T09:31:38.105Z,64.57
2018-05-25T09:34:05.494Z,64.70
2018-05-25T09:36:32.888Z,65.17
2018-05-25T09:39:00.295Z,64.28
2018-05-25T09:41:27.695Z,63.69
2018-05-25T09:43:55.079Z,62.84
2018-05-25T09:46:22.485Z,61.71
2018-05-25T09:48:50.745Z,62.39
2018-05-25T09:51:18.083Z,64.15
2018-05-25T09:53:45.469Z,63.09
2018-05-25T09:56:12.903Z,63.58
2018-05-25T09:58:40.264Z,63.03
2018-05-25T10:01:07.669Z,62.43
2018-05-25T10:03:35.068Z,63.24
2018-05-25T10:06:02.467Z,63.30
2018-05-25T10:08:29.861Z,62.51
2018-05-25T10:10:57.279Z,62.62
2018-05-25T10:13:24.681Z,62.75
2018-05-25T10:15:52.084Z,61.70
2018-05-25T10:18:19.472Z,61.46
2018-05-25T10:20:46.876Z,59.97
2018-05-25T10:23:14.256Z,59.53
2018-05-25T10:25:41.654Z,59.13
2018-05-25T10:28:09.043Z,58.67
2018-05-25T10:30:36.448Z,58.53
2018-05-25T10:33:03.833Z,58.54
2018-05-25T10:35:31.239Z,58.63
2018-05-25T10:37:59.319Z,58.48
2018-05-25T10:40:26.724Z,58.72
2018-05-25T10:42:54.119Z,59.05
2018-05-25T10:45:21.516Z,57.92
2018-05-25T10:47:48.895Z,57.06
2018-05-25T10:50:16.296Z,56.78
2018-05-25T10:52:43.689Z,57.56
2018-05-25T10:55:11.075Z,57.66
2018-05-25T10:57:38.466Z,57.13
2018-05-25T11:00:05.864Z,56.70
2018-05-25T11:02:33.251Z,56.53
2018-05-25T11:05:00.647Z,56.23
2018-05-25T11:07:28.038Z,56.04
2018-05-25T11:09:55.461Z,56.04
2018-05-25T11:12:22.832Z,56.08
2018-05-25T11:14:50.627Z,55.01
2018-05-25T11:17:18.019Z,54.62
2018-05-25T11:19:45.406Z,54.93
2018-05-25T11:22:12.815Z,53.54
2018-05-25T11:24:40.210Z,54.04
2018-05-25T11:27:07.655Z,55.43
2018-05-25T11:29:34.999Z,55.87
2018-05-25T11:32:02.405Z,53.49
2018-05-25T11:34:29.807Z,51.86
2018-05-25T11:36:57.185Z,51.26
2018-05-25T11:39:24.582Z,50.15
2018-05-25T11:41:51.962Z,50.78
2018-05-25T11:44:19.348Z,51.24
2018-05-25T11:46:48.819Z,52.27
2018-05-25T11:49:16.206Z,52.46
2018-05-25T11:51:43.596Z,51.11
2018-05-25T11:54:10.980Z,49.90
2018-05-25T11:56:38.368Z,46.43
2018-05-25T11:59:05.746Z,46.22
2018-05-25T12:01:33.205Z,46.86
2018-05-25T12:04:00.579Z,45.39
2018-05-25T12:06:27.971Z,43.09
2018-05-25T12:08:55.360Z,41.17
2018-05-25T12:11:22.764Z,42.11
2018-05-25T12:13:50.144Z,41.50
2018-05-25T12:16:17.559Z,40.72
2018-05-25T12:18:44.929Z,39.13
2018-05-25T12:21:12.312Z,40.13
2018-05-25T12:23:39.698Z,41.13
2018-05-25T12:26:07.080Z,38.38
2018-05-25T12:28:34.465Z,36.07
2018-05-25T12:31:02.449Z,35.19
2018-05-25T12:33:30.039Z,34.84
2018-05-25T12:35:57.440Z,33.89
2018-05-25T12:38:24.815Z,34.08
2018-05-25T12:40:52.231Z,32.91
2018-05-25T12:43:19.611Z,32.99
2018-05-25T12:45:47.004Z,36.81
2018-05-25T12:48:14.395Z,38.37
2018-05-25T12:50:41.790Z,38.42
2018-05-25T12:53:09.168Z,37.46
2018-05-25T12:55:36.560Z,40.17
2018-05-25T12:58:03.944Z,38.08
2018-05-25T13:00:31.331Z,39.16
2018-05-25T13:02:58.711Z,40.97
2018-05-25T13:05:26.091Z,42.19
2018-05-25T13:07:53.487Z,42.17
2018-05-25T13:10:20.858Z,43.41
2018-05-25T13:12:48.251Z,41.35
2018-05-25T13:15:15.630Z,41.12
2018-05-25T13:17:43.015Z,40.01
2018-05-25T13:20:10.394Z,42.49
2018-05-25T13:22:37.783Z,42.57
2018-05-25T13:25:05.164Z,40.38
2018-05-25T13:27:32.543Z,40.83
2018-05-25T13:30:00.200Z,37.24
2018-05-25T13:32:27.582Z,33.30
2018-05-25T13:34:54.960Z,33.23
2018-05-25T13:37:22.351Z,30.65
2018-05-25T13:39:49.728Z,31.46
2018-05-25T13:42:17.288Z,33.33
2018-05-25T13:44:44.801Z,35.80
2018-05-25T13:47:12.243Z,36.31
2018-05-25T13:49:39.861Z,36.91
2018-05-25T13:52:07.272Z,37.73
2018-05-25T13:54:34.782Z,38.89
2018-05-25T13:57:02.216Z,39.33
2018-05-25T13:59:30.711Z,39.59
2018-05-25T14:01:58.127Z,39.43
2018-05-25T14:04:25.554Z,38.37
2018-05-25T14:06:52.943Z,38.45
2018-05-25T14:09:20.442Z,38.60
2018-05-25T14:11:47.841Z,36.88
2018-05-25T14:14:15.233Z,32.59
2018-05-25T14:16:42.660Z,31.95
2018-05-25T14:19:10.079Z,31.17
2018-05-25T14:21:37.603Z,30.63
2018-05-25T14:24:05.029Z,30.35
2018-05-25T14:26:32.451Z,30.47
2018-05-25T14:29:00.469Z,29.39
2018-05-25T14:31:27.892Z,28.89
2018-05-25T14:33:55.366Z,27.90
2018-05-25T14:36:22.762Z,26.74
2018-05-25T14:38:50.143Z,29.54
2018-05-25T14:41:17.707Z,29.45
2018-05-25T14:43:45.176Z,27.88
2018-05-25T14:46:12.804Z,26.97
2018-05-25T14:48:40.307Z,27.59
2018-05-25T14:51:07.719Z,25.37
2018-05-25T14:53:35.193Z,25.97
2018-05-25T14:56:02.679Z,25.85
2018-05-25T14:58:30.767Z,27.52
2018-05-25T15:00:58.178Z,26.79
2018-05-25T15:03:25.555Z,27.03
2018-05-25T15:05:52.931Z,25.73
2018-05-25T15:08:20.324Z,27.31
2018-05-25T15:10:47.700Z,27.07
2018-05-25T15:13:15.088Z,27.95
2018-05-25T15:15:42.462Z,30.01
2018-05-25T15:18:09.855Z,30.44
2018-05-25T15:20:37.235Z,28.97
2018-05-25T15:23:04.618Z,28.97
2018-05-25T15:25:32.839Z,29.20
2018-05-25T15:28:00.726Z,29.98
2018-05-25T15:30:28.107Z,31.48
2018-05-25T15:32:55.499Z,30.84
2018-05-25T15:35:22.887Z,30.96
2018-05-25T15:37:50.274Z,32.32
2018-05-25T15:40:17.838Z,30.30
2018-05-25T15:42:45.290Z,32.01
2018-05-25T15:45:12.667Z,32.80
2018-05-25T15:47:40.059Z,31.99
2018-05-25T15:50:07.443Z,30.18
2018-05-25T15:52:34.830Z,29.94
2018-05-25T15:55:02.210Z,29.01
2018-05-25T15:57:29.608Z,29.54
2018-05-25T15:59:56.992Z,30.81
2018-05-25T16:02:24.442Z,32.20
2018-05-25T16:04:51.763Z,32.61
2018-05-25T16:07:19.156Z,34.00
2018-05-25T16:09:46.534Z,35.19
2018-05-25T16:12:13.936Z,35.70
2018-05-25T16:14:41.317Z,36.82
2018-05-25T16:17:08.700Z,37.39
2018-05-25T16:19:36.079Z,36.30
2018-05-25T16:22:03.466Z,35.87
2018-05-25T16:24:31.075Z,36.21
2018-05-25T16:26:58.464Z,36.51
2018-05-25T16:29:25.838Z,37.02
2018-05-25T16:31:53.231Z,37.26
2018-05-25T16:34:20.616Z,37.36
2018-05-25T16:36:48.008Z,38.07
2018-05-25T16:39:15.389Z,38.85
2018-05-25T16:41:42.766Z,38.39
2018-05-25T16:44:10.170Z,39.08
2018-05-25T16:46:37.547Z,39.93
2018-05-25T16:49:04.930Z,40.07
2018-05-25T16:51:32.347Z,40.97
2018-05-25T16:53:59.744Z,40.96
2018-05-25T16:56:27.135Z,40.79
2018-05-25T16:58:54.581Z,40.87
2018-05-25T17:01:21.908Z,41.66
2018-05-25T17:03:49.302Z,41.39
2018-05-25T17:06:16.691Z,41.28
2018-05-25T17:08:44.083Z,41.64
2018-05-25T17:11:11.613Z,42.02
2018-05-25T17:13:39.012Z,41.09
2018-05-25T17:16:06.391Z,41.85
2018-05-25T17:18:35.450Z,41.91
2018-05-25T17:21:02.925Z,41.84
2018-05-25T17:23:30.235Z,42.62
2018-05-25T17:25:57.611Z,42.65
2018-05-25T17:28:25.003Z,42.42
2018-05-25T17:30:52.383Z,42.98
2018-05-25T17:33:19.775Z,42.80
2018-05-25T17:35:47.160Z,43.50
2018-05-25T17:38:14.552Z,43.63
2018-05-25T17:40:41.949Z,44.49
2018-05-25T17:43:09.340Z,44.34
2018-05-25T17:45:36.747Z,44.52
2018-05-25T17:48:04.120Z,45.27
2018-05-25T17:50:33.428Z,44.50
2018-05-25T17:53:01.442Z,45.20
2018-05-25T17:55:28.846Z,44.91
2018-05-25T17:57:56.244Z,45.19
2018-05-25T18:00:23.644Z,44.92
2018-05-25T18:02:51.042Z,45.52
2018-05-25T18:05:18.451Z,46.19
2018-05-25T18:07:45.844Z,46.18
2018-05-25T18:10:13.254Z,46.68
2018-05-25T18:12:40.644Z,47.54
2018-05-25T18:15:08.051Z,46.46
2018-05-25T18:17:35.441Z,46.66
2018-05-25T18:20:02.834Z,46.83
2018-05-25T18:22:30.216Z,46.71
2018-05-25T18:24:57.709Z,47.37
2018-05-25T18:27:25.109Z,47.28
2018-05-25T18:29:52.559Z,47.62
2018-05-25T18:32:19.941Z,47.28
2018-05-25T18:34:47.326Z,46.60
2018-05-25T18:37:15.031Z,47.17
2018-05-25T18:39:42.427Z,47.21
2018-05-25T18:42:09.810Z,47.00
2018-05-25T18:44:37.233Z,46.67
2018-05-25T18:47:04.601Z,47.24
2018-05-25T18:49:32.004Z,47.45
2018-05-25T18:51:59.410Z,47.41
2018-05-25T18:54:32.465Z,47.03
2018-05-25T18:56:59.847Z,48.33
2018-05-25T18:59:27.590Z,48.93
2018-05-25T19:01:54.971Z,48.37
2018-05-25T19:04:22.354Z,48.90
2018-05-25T19:06:49.767Z,49.39
2018-05-25T19:09:17.150Z,49.30
2018-05-25T19:11:44.555Z,49.12
2018-05-25T19:14:11.955Z,48.27
2018-05-25T19:16:39.366Z,49.33
2018-05-25T19:19:07.566Z,50.24
2018-05-25T19:21:34.966Z,50.98
2018-05-25T19:24:02.354Z,51.37
2018-05-25T19:26:29.735Z,51.23
2018-05-25T19:28:57.162Z,51.75
2018-05-25T19:31:24.522Z,51.35
2018-05-25T19:33:51.905Z,52.10
2018-05-25T19:36:19.309Z,53.03
2018-05-25T19:38:47.027Z,52.61
2018-05-25T19:41:14.362Z,52.88
2018-05-25T19:43:41.803Z,53.47
2018-05-25T19:46:09.207Z,53.71
2018-05-25T19:48:36.602Z,53.12
2018-05-25T19:51:03.980Z,53.86
2018-05-25T19:53:34.206Z,53.79
2018-05-25T19:56:02.008Z,54.47
2018-05-25T19:58:29.398Z,54.06
2018-05-25T20:00:56.789Z,54.63
2018-05-25T20:03:24.170Z,54.75
2018-05-25T20:05:51.547Z,54.53
2018-05-25T20:08:18.941Z,55.15
2018-05-25T20:10:46.322Z,54.93
2018-05-25T20:13:13.715Z,56.13
2018-05-25T20:15:41.099Z,56.02
2018-05-25T20:18:08.633Z,56.01
2018-05-25T20:20:36.029Z,55.60
2018-05-25T20:23:03.417Z,56.11
2018-05-25T20:25:30.808Z,55.98
2018-05-25T20:27:58.192Z,56.35
2018-05-25T20:30:25.578Z,56.64
2018-05-25T20:32:52.969Z,56.06
2018-05-25T20:35:20.359Z,56.53
2018-05-25T20:37:47.767Z,56.39
2018-05-25T20:40:15.160Z,55.41
2018-05-25T20:42:42.561Z,55.55
2018-05-25T20:45:09.952Z,55.56
2018-05-25T20:47:37.329Z,56.60
2018-05-25T20:50:04.727Z,55.59
2018-05-25T20:52:32.501Z,55.92
2018-05-25T20:54:59.939Z,57.03
2018-05-25T20:57:27.304Z,56.10
2018-05-25T20:59:54.705Z,57.00
2018-05-25T21:02:22.093Z,56.51
2018-05-25T21:04:49.491Z,56.03
2018-05-25T21:07:16.887Z,56.70
2018-05-25T21:09:44.289Z,57.41
2018-05-25T21:12:11.740Z,56.73
2018-05-25T21:14:39.098Z,57.51
2018-05-25T21:17:06.468Z,58.01
2018-05-25T21:19:33.895Z,57.13
2018-05-25T21:22:01.258Z,57.25
2018-05-25T21:24:28.649Z,56.87
2018-05-25T21:26:56.065Z,57.80
2018-05-25T21:29:23.462Z,57.83
2018-05-25T21:31:50.852Z,58.62
2018-05-25T21:34:18.248Z,58.41
2018-05-25T21:36:45.627Z,60.75
2018-05-25T21:39:13.027Z,59.48
2018-05-25T21:41:40.419Z,59.60
2018-05-25T21:44:07.807Z,58.32
2018-05-25T21:46:35.205Z,58.78
2018-05-25T21:49:02.586Z,59.15
2018-05-25T21:51:30.016Z,58.96
2018-05-25T21:53:57.409Z,60.00
2018-05-25T21:56:24.808Z,58.94
2018-05-25T21:58:52.185Z,59.90
2018-05-25T22:01:19.596Z,60.22
2018-05-25T22:03:46.984Z,60.32
2018-05-25T22:06:14.381Z,61.43
2018-05-25T22:08:41.763Z,60.92
2018-05-25T22:11:09.158Z,61.47
2018-05-25T22:13:36.533Z,61.52
2018-05-25T22:16:03.914Z,61.51
2018-05-25T22:18:31.312Z,60.89
2018-05-25T22:20:58.711Z,61.57
2018-05-25T22:23:26.103Z,60.81
2018-05-25T22:25:53.503Z,61.70
2018-05-25T22:28:20.897Z,61.69
2018-05-25T22:30:48.299Z,61.47
2018-05-25T22:33:15.699Z,60.91
2018-05-25T22:35:43.090Z,61.19
2018-05-25T22:38:10.464Z,62.22
2018-05-25T22:40:38.131Z,61.46
2018-05-25T22:43:17.314Z,62.20
2018-05-25T22:45:56.519Z,62.63
2018-05-25T22:48:35.594Z,62.70
2018-05-25T22:51:14.768Z,62.59
2018-05-25T22:53:47.241Z,62.88
2018-05-25T22:56:14.637Z,63.28
2018-05-25T22:58:42.034Z,63.03
2018-05-25T23:01:09.607Z,63.20
2018-05-25T23:03:37.009Z,62.95
2018-05-25T23:06:04.382Z,62.71
2018-05-25T23:08:31.775Z,63.02
2018-05-25T23:10:59.163Z,63.92
2018-05-25T23:13:26.555Z,64.26
2018-05-25T23:15:53.928Z,63.95
2018-05-25T23:18:21.327Z,63.83
2018-05-25T23:20:48.728Z,64.45
2018-05-25T23:23:16.125Z,64.36
2018-05-25T23:25:43.712Z,64.26
2018-05-25T23:28:11.107Z,64.28
2018-05-25T23:30:38.500Z,64.50
2018-05-25T23:33:07.466Z,63.21
2018-05-25T23:35:34.848Z,63.27
2018-05-25T23:38:04.260Z,64.06
2018-05-25T23:40:31.679Z,64.34
2018-05-25T23:42:59.313Z,64.73
2018-05-25T23:45:26.891Z,64.76
2018-05-25T23:47:54.342Z,64.86
2018-05-25T23:50:21.804Z,65.43
2018-05-25T23:52:49.192Z,64.80
2018-05-25T23:55:16.578Z,65.32
2018-05-25T23:57:43.963Z,65.09
